Погода Которна 2 недели

Котор, Черногория

21 февраля-05 марта
  • 21февраля
    Сегодня
    +4°
    +15°
    Практически безоблачно
    ВремяПогодаТемператураВлажностьДавлениеВетер, м/сВероятность осадков
    01:00Ясно и безоблачно+6°C71 %739 мм3.1 м/с2 %
    04:00Ясно и безоблачно+5°C74 %739 мм3.0 м/с2 %
    07:00Ясно и безоблачно+5°C74 %739 мм3.0 м/с3 %
    10:00Ясно и безоблачно+13°C49 %740 мм1.0 м/с3 %
    13:00Практически безоблачно+14°C50 %740 мм2.4 м/с1 %
    16:00Небольшая облачность+12°C60 %739 мм0.9 м/с2 %
    19:00Ясно и безоблачно+7°C77 %739 мм0.8 м/с2 %
    22:00Ясно и безоблачно+5°C79 %738 мм0.8 м/с2 %
  • 22февраля
    Четверг
    +7°
    +14°
    Практически безоблачно
    ВремяПогодаТемператураВлажностьДавлениеВетер, м/сВероятность осадков
    01:00Ясно и безоблачно+5°C78 %738 мм1.0 м/с2 %
    04:00Ясно и безоблачно+6°C74 %738 мм0.7 м/с2 %
    07:00Ясно и безоблачно+6°C75 %738 мм0.6 м/с2 %
    10:00Практически безоблачно+13°C66 %738 мм1.8 м/с2 %
    13:00Практически безоблачно+13°C68 %738 мм2.6 м/с4 %
    16:00Облачно с прояснениями+13°C70 %736 мм1.8 м/с3 %
    19:00Облачно с прояснениями+8°C87 %736 мм1.2 м/с2 %
    22:00Пасмурно, сплошная облачность+7°C83 %735 мм1.8 м/с26 %
  • 23февраля
    Пятница
    +10°
    +14°
    Пасмурно, небольшой дождь
    ВремяПогодаТемператураВлажностьДавлениеВетер, м/сВероятность осадков
    01:00Пасмурно, ливень+8°C96 %734 мм1.4 м/с63 %
    04:00Пасмурно, ливень+9°C97 %733 мм1.8 м/с72 %
    07:00Пасмурно, ливень+9°C96 %733 мм2.7 м/с75 %
    10:00Пасмурно, ливень+12°C95 %733 мм3.3 м/с79 %
    13:00Пасмурно, небольшой дождь+13°C87 %733 мм3.2 м/с81 %
    16:00Пасмурно, ливень+13°C94 %732 мм4.4 м/с85 %
    19:00Пасмурно, ливень+11°C95 %732 мм4.4 м/с86 %
    22:00Пасмурно, дождь+11°C95 %732 мм5.4 м/с89 %
  • 24февраля
    Суббота
    +9°
    +14°
    Пасмурно, дождь
    ВремяПогодаТемператураВлажностьДавлениеВетер, м/сВероятность осадков
    01:00Пасмурно, дождь+11°C96 %732 мм6.1 м/с92 %
    04:00Пасмурно, дождь+11°C97 %731 мм6.1 м/с96 %
    07:00Пасмурно, дождь+11°C99 %731 мм5.7 м/с98 %
    10:00Пасмурно, дождь+13°C100 %732 мм5.6 м/с97 %
    13:00Пасмурно, дождь+13°C98 %731 мм4.3 м/с98 %
    16:00Пасмурно, дождь+13°C98 %732 мм1.1 м/с96 %
    19:00Пасмурно, дождь+11°C97 %732 мм0.8 м/с88 %
    22:00Пасмурно, небольшой дождь+10°C94 %733 мм1.3 м/с82 %
  • 25февраля
    Воскресенье
    +4°
    +12°
    Пасмурно, дождь
    ВремяПогодаТемператураВлажностьДавлениеВетер, м/сВероятность осадков
    01:00Пасмурно, дождь+10°C98 %732 мм1.4 м/с87 %
    04:00Пасмурно, дождь+11°C98 %732 мм2.3 м/с93 %
    07:00Пасмурно, дождь+10°C99 %731 мм3.5 м/с90 %
    10:00Пасмурно, дождь+12°C99 %731 мм3.3 м/с92 %
    13:00Пасмурно, дождь+12°C90 %730 мм2.5 м/с96 %
    16:00Пасмурно, дождь+11°C97 %728 мм1.8 м/с94 %
    19:00Пасмурно, дождь+9°C97 %728 мм2.3 м/с91 %
    22:00Пасмурно, дождь+8°C97 %727 мм1.8 м/с75 %
Мы используем cookies
Соглашаюсь